Time;durP1;ratioP1;P1;durP2;ratioP2;P2;SDS_P1;SDS_P2;PMS_P1;PMS_P2;Temp;Humidity;BMP_temperature;BMP_pressure;BME280_temperature;BME280_humidity;BME280_pressure;Samples;Min_cycle;Max_cycle;Signal;HPM_P1;HPM_P2
2022/11/02 00:00:22;;;;;;;24.85;4.30;;;;;;;12.84;77.56;101277.59;5074066;28;20029;-47
2022/11/02 00:02:48;;;;;;;34.33;5.45;;;;;;;12.85;77.31;101282.81;5074491;28;20086;-48
2022/11/02 00:05:14;;;;;;;24.38;4.13;;;;;;;12.88;77.04;101279.44;5073637;28;20020;-49
2022/11/02 00:07:40;;;;;;;36.58;4.53;;;;;;;12.92;76.81;101275.22;5074415;28;20035;-45
2022/11/02 00:10:06;;;;;;;25.75;4.50;;;;;;;12.91;77.22;101284.72;5074589;28;20150;-44
2022/11/02 00:12:31;;;;;;;34.95;5.15;;;;;;;12.96;76.34;101277.06;5073674;28;20151;-46
2022/11/02 00:14:56;;;;;;;26.38;4.63;;;;;;;12.92;76.94;101276.09;5074090;28;20104;-49
2022/11/02 00:17:22;;;;;;;34.17;4.47;;;;;;;12.96;76.58;101277.06;5073908;28;20025;-47
2022/11/02 00:19:47;;;;;;;23.40;4.60;;;;;;;12.94;76.65;101274.44;5073564;28;20403;-49
2022/11/02 00:22:12;;;;;;;25.73;3.95;;;;;;;12.97;76.38;101277.09;5073933;28;20025;-47
2022/11/02 00:24:38;;;;;;;27.95;5.07;;;;;;;12.98;76.40;101276.25;5074025;28;20380;-48
2022/11/02 00:27:03;;;;;;;33.58;5.60;;;;;;;13.03;76.00;101276.41;5073545;28;20055;-48
2022/11/02 00:29:28;;;;;;;34.45;4.80;;;;;;;13.02;76.28;101272.06;5073514;28;20431;-48
2022/11/02 00:31:53;;;;;;;27.05;4.40;;;;;;;13.05;75.58;101277.28;5073553;28;20036;-49
2022/11/02 00:34:20;;;;;;;30.20;4.00;;;;;;;13.10;75.35;101280.00;5073691;28;20032;-48
2022/11/02 00:36:45;;;;;;;27.17;4.00;;;;;;;13.07;75.50;101275.63;5073588;28;20483;-49
2022/11/02 00:39:11;;;;;;;26.90;3.92;;;;;;;13.07;75.44;101285.13;5073161;28;20036;-48
2022/11/02 00:41:36;;;;;;;19.98;3.53;;;;;;;13.08;75.49;101277.38;5073945;28;20028;-48
2022/11/02 00:44:01;;;;;;;29.88;3.90;;;;;;;13.09;75.40;101292.09;5073479;28;20120;-48
2022/11/02 00:46:27;;;;;;;28.00;4.25;;;;;;;13.13;74.75;101275.78;5072727;28;20040;-48
2022/11/02 00:48:52;;;;;;;22.88;4.05;;;;;;;13.07;75.01;101285.13;5073319;28;20024;-47
2022/11/02 00:51:17;;;;;;;24.98;4.35;;;;;;;13.03;75.31;101289.34;5073353;28;20078;-47
2022/11/02 00:53:42;;;;;;;21.88;3.53;;;;;;;13.02;75.15;101288.44;5073110;28;20036;-47
2022/11/02 00:56:08;;;;;;;28.83;4.57;;;;;;;13.01;74.46;101280.63;5073131;28;20016;-48
2022/11/02 00:58:33;;;;;;;16.83;3.30;;;;;;;12.97;74.68;101291.75;5073485;28;20036;-46
2022/11/02 01:01:03;;;;;;;28.92;3.83;;;;;;;12.92;74.51;101306.28;5072802;28;20032;-48
2022/11/02 01:03:28;;;;;;;25.77;3.58;;;;;;;12.87;74.52;101302.69;5072941;28;20476;-48
2022/11/02 01:05:54;;;;;;;20.98;4.13;;;;;;;12.80;74.79;101302.50;5073246;28;20062;-47
2022/11/02 01:08:19;;;;;;;18.27;3.50;;;;;;;12.78;74.27;101293.84;5072738;28;20051;-48
2022/11/02 01:10:44;;;;;;;25.52;3.55;;;;;;;12.76;74.12;101310.16;5073038;28;20035;-47
2022/11/02 01:13:09;;;;;;;21.42;3.47;;;;;;;12.65;74.62;101320.19;5073136;28;20389;-47
2022/11/02 01:15:35;;;;;;;23.00;4.20;;;;;;;12.60;74.55;101319.16;5072742;28;20034;-47
2022/11/02 01:18:01;;;;;;;19.15;3.75;;;;;;;12.55;74.68;101328.50;5072807;28;20028;-49
2022/11/02 01:20:26;;;;;;;25.38;3.70;;;;;;;12.48;74.25;101336.06;5072843;28;20109;-48
2022/11/02 01:22:51;;;;;;;19.55;3.53;;;;;;;12.43;74.19;101326.44;5072782;28;20484;-48
2022/11/02 01:25:16;;;;;;;18.50;3.53;;;;;;;12.37;74.09;101332.31;5072718;28;20027;-48
2022/11/02 01:27:42;;;;;;;20.17;3.72;;;;;;;12.35;73.77;101328.78;5072758;28;20036;-45
2022/11/02 01:30:07;;;;;;;22.63;3.58;;;;;;;12.27;74.05;101325.13;5072206;28;20020;-45
2022/11/02 01:32:33;;;;;;;18.17;2.90;;;;;;;12.24;73.96;101325.00;5072695;28;20032;-48
2022/11/02 01:34:58;;;;;;;26.48;3.55;;;;;;;12.23;74.02;101323.28;5072921;28;20081;-46
2022/11/02 01:37:23;;;;;;;28.83;4.25;;;;;;;12.16;74.31;101323.06;5072277;28;20023;-44
2022/11/02 01:39:48;;;;;;;21.13;3.33;;;;;;;12.11;74.61;101329.81;5072867;28;20025;-48
2022/11/02 01:42:25;;;;;;;20.75;4.10;;;;;;;12.14;73.97;101336.78;5072101;28;20021;-47
2022/11/02 01:44:50;;;;;;;19.25;3.30;;;;;;;12.12;73.79;101321.25;5072818;28;20017;-48
2022/11/02 01:47:25;;;;;;;17.80;3.15;;;;;;;12.11;74.08;101339.25;5072366;28;20017;-47
2022/11/02 01:49:55;;;;;;;25.48;3.80;;;;;;;12.08;74.05;101345.19;5072511;28;20060;-48
2022/11/02 01:52:29;;;;;;;26.25;3.63;;;;;;;12.11;73.87;101347.00;5072370;28;20532;-47
2022/11/02 01:55:04;;;;;;;26.95;3.95;;;;;;;12.06;74.07;101338.22;5072920;28;20086;-48
2022/11/02 01:57:31;;;;;;;18.73;3.40;;;;;;;12.08;73.88;101339.16;5072031;28;20111;-49
2022/11/02 02:00:03;;;;;;;15.82;3.50;;;;;;;12.04;74.30;101353.69;5072464;28;20178;-48
2022/11/02 02:02:28;;;;;;;22.63;3.58;;;;;;;12.05;74.43;101345.13;5072721;28;20024;-48
2022/11/02 02:05:02;;;;;;;18.38;3.25;;;;;;;12.05;74.11;101345.13;5072477;28;20031;-47
2022/11/02 02:07:30;;;;;;;21.25;3.40;;;;;;;12.05;74.29;101342.53;5072250;28;20039;-48
2022/11/02 02:09:55;;;;;;;16.73;2.65;;;;;;;12.08;73.88;101342.63;5072753;28;20078;-46
2022/11/02 02:12:22;;;;;;;28.23;3.58;;;;;;;12.07;74.20;101348.63;5071764;28;20028;-47
2022/11/02 02:14:48;;;;;;;19.63;3.40;;;;;;;12.07;73.77;101346.06;5072611;28;20095;-47
2022/11/02 02:17:25;;;;;;;21.02;3.58;;;;;;;12.02;74.04;101345.03;5072257;28;20377;-47
2022/11/02 02:20:00;;;;;;;;;;;;;;;12.06;73.69;101341.72;5073100;28;20035;-49
2022/11/02 02:22:51;;;;;;;25.42;3.15;;;;;;;11.92;74.47;101341.22;5072271;28;20031;-47
2022/11/02 02:25:32;;;;;;;29.90;3.70;;;;;;;11.88;74.58;101352.31;5071892;28;20112;-47
2022/11/02 02:28:24;;;;;;;22.63;3.10;;;;;;;11.82;74.81;101352.09;5072362;28;20024;-47
2022/11/02 02:30:55;;;;;;;29.38;3.05;;;;;;;11.69;75.62;101355.97;5072452;28;20540;-46
2022/11/02 02:33:31;;;;;;;28.58;3.83;;;;;;;11.65;76.18;101348.97;5071880;28;20107;-48
2022/11/02 02:36:02;;;;;;;29.08;3.50;;;;;;;11.63;76.39;101345.44;5072472;28;20056;-47
2022/11/02 02:38:46;;;;;;;21.65;3.63;;;;;;;11.57;76.62;101335.81;5071750;28;20082;-48
2022/11/02 02:41:46;;;;;;;23.58;3.75;;;;;;;11.59;76.68;101344.44;5075762;28;20035;-47
2022/11/02 02:44:19;;;;;;;23.73;3.38;;;;;;;11.53;76.93;101358.03;5076012;28;20025;-47
2022/11/02 02:46:58;;;;;;;25.13;4.18;;;;;;;11.49;77.45;101357.88;5075259;28;20531;-48
2022/11/02 02:49:35;;;;;;;28.75;4.10;;;;;;;11.47;77.33;101347.50;5075590;28;20032;-46
2022/11/02 02:52:02;;;;;;;25.45;4.10;;;;;;;11.42;77.51;101359.38;5075908;28;20047;-47
2022/11/02 02:54:37;;;;;;;31.13;4.50;;;;;;;11.40;78.03;101350.72;5075202;28;20095;-46
2022/11/02 02:57:07;;;;;;;30.23;4.43;;;;;;;11.33;78.31;101343.56;5075705;28;20024;-46
2022/11/02 02:59:38;;;;;;;24.70;3.88;;;;;;;11.37;78.06;101350.59;5075237;28;20024;-47
2022/11/02 03:02:06;;;;;;;21.73;3.40;;;;;;;11.37;77.77;101358.34;5075522;28;20555;-45
2022/11/02 03:04:32;;;;;;;33.17;4.85;;;;;;;11.36;78.08;101361.75;5075582;28;20376;-46
2022/11/02 03:07:00;;;;;;;27.30;4.13;;;;;;;11.38;77.90;101359.25;5075073;28;20028;-47
2022/11/02 03:09:39;;;;;;;32.05;4.32;;;;;;;11.38;77.85;101370.44;5075233;28;20074;-48
2022/11/02 03:12:19;;;;;;;36.85;4.45;;;;;;;11.29;78.08;101360.66;5075537;28;20369;-47
2022/11/02 03:15:02;;;;;;;27.08;3.63;;;;;;;11.29;78.13;101357.22;5074957;28;20035;-48
2022/11/02 03:17:35;;;;;;;40.03;4.25;;;;;;;11.27;78.04;101367.47;5075135;28;20028;-47
2022/11/02 03:20:15;;;;;;;38.58;4.72;;;;;;;11.27;77.98;101370.06;5075356;28;20411;-48
2022/11/02 03:22:54;;;;;;;29.35;4.00;;;;;;;11.23;77.84;101365.59;5074769;28;20387;-46
2022/11/02 03:25:35;;;;;;;38.47;4.68;;;;;;;11.27;77.57;101375.22;5074769;28;20050;-47
2022/11/02 03:28:15;;;;;;;33.10;4.60;;;;;;;11.27;77.83;101389.81;5074667;28;20495;-47
2022/11/02 03:30:56;;;;;;;27.63;4.05;;;;;;;11.35;77.06;101378.06;5074884;28;20468;-46
2022/11/02 03:33:30;;;;;;;31.60;4.32;;;;;;;11.41;76.72;101386.00;5075002;28;20024;-47
2022/11/02 03:36:07;;;;;;;30.80;4.93;;;;;;;11.40;76.75;101381.69;5074767;28;20029;-48
2022/11/02 03:38:54;;;;;;;34.30;4.95;;;;;;;11.37;76.74;101389.31;5074768;28;20029;-48
2022/11/02 03:41:22;;;;;;;30.60;4.93;;;;;;;11.34;76.85;101378.88;5074902;28;20034;-47
2022/11/02 03:43:52;;;;;;;34.60;5.03;;;;;;;11.42;76.36;101386.91;5074471;28;20074;-47
2022/11/02 03:46:18;;;;;;;38.78;5.57;;;;;;;11.36;76.61;101388.44;5074201;28;20093;-47
2022/11/02 03:48:46;;;;;;;27.67;4.15;;;;;;;11.38;76.19;101395.38;5074751;28;20060;-47
2022/11/02 03:51:14;;;;;;;31.75;4.55;;;;;;;11.40;75.98;101391.13;5074099;28;20112;-47
2022/11/02 03:54:07;;;;;;;35.28;5.60;;;;;;;11.40;76.16;101399.75;5074478;28;20353;-46
2022/11/02 03:56:40;;;;;;;35.08;4.80;;;;;;;11.36;76.31;101400.44;5074119;28;20380;-48
2022/11/02 03:59:06;;;;;;;40.13;6.15;;;;;;;11.35;76.49;101401.31;5074364;28;20024;-43
2022/11/02 04:01:39;;;;;;;37.13;5.13;;;;;;;11.32;76.81;101403.75;5074752;28;20028;-47
2022/11/02 04:04:04;;;;;;;29.60;4.70;;;;;;;11.30;76.94;101398.53;5074163;28;20082;-48
2022/11/02 04:06:30;;;;;;;41.13;5.13;;;;;;;11.27;77.14;101415.59;5074098;28;20021;-47
2022/11/02 04:08:55;;;;;;;38.90;5.47;;;;;;;11.26;77.37;101417.31;5074337;28;20463;-45
2022/11/02 04:16:49;;;;;;;32.53;4.95;;;;;;;11.20;78.15;101412.81;5074683;28;20046;-46
2022/11/02 04:19:26;;;;;;;28.80;4.72;;;;;;;11.18;78.54;101427.38;5073172;28;20032;-44
2022/11/02 04:27:19;;;;;;;31.65;4.38;;;;;;;11.18;78.85;101439.38;5073691;28;20154;-48
2022/11/02 04:29:45;;;;;;;30.73;4.65;;;;;;;11.22;78.96;101435.22;5073993;28;20078;-48
2022/11/02 04:32:10;;;;;;;32.38;4.78;;;;;;;11.24;79.06;101455.09;5073345;28;20029;-48
2022/11/02 04:34:35;;;;;;;33.05;4.80;;;;;;;11.26;78.71;101449.97;5073851;28;20122;-46
2022/11/02 04:38:38;;;;;;;34.70;4.72;;;;;;;11.23;78.93;101467.94;5073790;28;20039;-48
2022/11/02 04:39:46;;;;;;;38.50;4.65;;;;;;;11.23;79.18;101465.34;5073215;28;20461;-48
2022/11/02 04:42:11;;;;;;;39.67;4.43;;;;;;;11.20;79.16;101479.03;5073226;28;20024;-47
2022/11/02 04:44:36;;;;;;;38.00;4.63;;;;;;;11.22;79.20;101489.38;5073533;28;20024;-46
2022/11/02 04:47:02;;;;;;;35.40;5.22;;;;;;;11.16;79.16;101478.03;5073412;28;20035;-48
2022/11/02 04:49:27;;;;;;;29.65;4.72;;;;;;;11.12;79.20;101486.47;5073163;28;20051;-47
2022/11/02 04:51:52;;;;;;;34.88;6.03;;;;;;;11.15;78.83;101491.75;5073730;28;20024;-47
2022/11/02 04:54:17;;;;;;;38.05;5.18;;;;;;;11.17;78.91;101489.25;5072889;28;20020;-48
2022/11/02 04:56:43;;;;;;;40.15;5.22;;;;;;;11.16;78.85;101492.63;5073255;28;20040;-47
2022/11/02 04:59:08;;;;;;;37.70;5.30;;;;;;;11.14;78.78;101484.84;5072535;28;20496;-47
2022/11/02 05:01:33;;;;;;;34.10;4.75;;;;;;;11.14;79.03;101510.66;5072684;28;20036;-47
2022/11/02 05:03:58;;;;;;;38.50;5.55;;;;;;;11.15;78.96;101502.06;5073323;28;20032;-48
2022/11/02 05:06:24;;;;;;;34.83;5.65;;;;;;;11.18;78.49;101502.19;5072733;28;20107;-47
2022/11/02 05:08:50;;;;;;;43.42;5.20;;;;;;;11.18;78.58;101507.34;5073316;28;20058;-48
2022/11/02 05:11:15;;;;;;;27.50;4.38;;;;;;;11.18;78.52;101517.66;5073140;28;20047;-48
2022/11/02 05:13:41;;;;;;;34.05;5.07;;;;;;;11.24;78.11;101535.06;5072607;28;20032;-46
2022/11/02 05:16:10;;;;;;;39.03;4.75;;;;;;;11.25;78.06;101538.56;5072713;28;20036;-48
2022/11/02 05:18:36;;;;;;;34.50;5.57;;;;;;;11.20;78.25;101530.63;5073265;28;20025;-45
2022/11/02 05:21:01;;;;;;;39.17;5.75;;;;;;;11.13;78.36;101533.78;5072766;28;20028;-48
2022/11/02 05:23:27;;;;;;;28.63;4.35;;;;;;;11.07;78.71;101543.88;5072720;28;20027;-48
2022/11/02 05:25:55;;;;;;;36.85;4.38;;;;;;;10.99;79.14;101541.00;5073101;28;20048;-43
2022/11/02 05:28:21;;;;;;;;;;;;;;;11.02;78.98;101552.31;5072692;28;20033;-48
2022/11/02 05:30:46;;;;;;;40.30;5.65;;;;;;;10.99;79.17;101541.00;5072994;28;19938;-44
2022/11/02 05:33:11;;;;;;;35.35;6.32;;;;;;;11.03;79.03;101548.03;5072663;28;20058;-45
2022/11/02 05:35:37;;;;;;;35.78;5.20;;;;;;;11.04;79.31;101554.97;5072618;28;20468;-48
2022/11/02 05:38:02;;;;;;;35.05;5.15;;;;;;;10.98;79.55;101554.72;5072541;28;20040;-47
2022/11/02 05:40:27;;;;;;;31.23;5.65;;;;;;;10.96;79.47;101571.81;5072598;28;20040;-46
2022/11/02 05:43:00;;;;;;;36.75;5.05;;;;;;;10.94;79.50;101579.50;5072352;28;20483;-46
2022/11/02 05:45:25;;;;;;;29.00;4.72;;;;;;;10.94;79.33;101565.75;5072372;28;20045;-47
2022/11/02 05:47:50;;;;;;;29.13;4.75;;;;;;;10.88;79.61;101584.41;5072773;28;20077;-47
2022/11/02 05:50:16;;;;;;;36.90;5.13;;;;;;;10.87;79.21;101583.53;5072200;28;20025;-47
2022/11/02 05:52:41;;;;;;;30.20;4.40;;;;;;;10.85;79.26;101590.31;5072584;28;20017;-47
2022/11/02 05:55:07;;;;;;;39.47;5.75;;;;;;;10.76;79.71;101595.13;5072563;28;20106;-46
2022/11/02 05:57:32;;;;;;;32.10;4.78;;;;;;;10.71;79.94;101581.16;5071807;28;20384;-46
2022/11/02 05:59:57;;;;;;;33.42;4.70;;;;;;;10.69;79.94;101593.09;5072927;28;20028;-45
2022/11/02 06:02:22;;;;;;;28.23;4.90;;;;;;;10.62;80.19;101585.94;5072213;28;20100;-44
2022/11/02 06:04:48;;;;;;;35.53;5.18;;;;;;;10.56;80.42;101607.19;5072556;28;20820;-47
2022/11/02 06:07:13;;;;;;;27.13;4.40;;;;;;;10.50;80.76;101612.97;5072428;28;20032;-47
2022/11/02 06:09:38;;;;;;;30.08;4.70;;;;;;;10.45;81.15;101622.19;5072040;28;20472;-48
2022/11/02 06:12:04;;;;;;;27.95;4.88;;;;;;;10.39;81.37;101614.19;5072255;28;20111;-47
2022/11/02 06:14:29;;;;;;;36.45;5.75;;;;;;;10.37;81.51;101615.84;5075833;28;20038;-48
2022/11/02 06:16:54;;;;;;;35.08;5.65;;;;;;;10.30;81.95;101629.22;5075973;28;20159;-47
2022/11/02 06:19:19;;;;;;;35.72;5.00;;;;;;;10.27;82.07;101636.84;5075961;28;20036;-46
2022/11/02 06:21:45;;;;;;;39.15;5.07;;;;;;;10.25;82.34;101630.72;5076649;28;20081;-47
2022/11/02 06:24:10;;;;;;;49.03;4.70;;;;;;;10.18;82.86;101645.91;5075726;28;20024;-47
2022/11/02 06:26:35;;;;;;;39.10;5.40;;;;;;;10.19;82.61;101639.94;5076056;28;20059;-47
2022/11/02 06:29:00;;;;;;;33.10;4.93;;;;;;;10.17;82.61;101651.91;5076403;28;20039;-47
2022/11/02 06:31:26;;;;;;;39.35;5.43;;;;;;;10.15;83.11;101666.38;5075326;28;20043;-48
2022/11/02 06:33:51;;;;;;;36.95;5.93;;;;;;;10.09;83.25;101666.13;5076174;28;20605;-47
2022/11/02 06:36:16;;;;;;;37.83;5.93;;;;;;;10.05;83.57;101674.53;5076021;28;20067;-46
2022/11/02 06:38:42;;;;;;;39.00;5.63;;;;;;;10.01;83.75;101678.66;5075554;28;20472;-48
2022/11/02 06:41:08;;;;;;;39.05;4.60;;;;;;;9.97;84.24;101692.19;5075491;28;20024;-47
2022/11/02 06:43:36;;;;;;;38.63;5.03;;;;;;;9.96;84.43;101700.72;5075873;28;20036;-45
2022/11/02 06:46:02;;;;;;;46.28;5.20;;;;;;;9.94;84.61;101704.03;5075429;28;20045;-48
2022/11/02 06:48:27;;;;;;;40.50;5.32;;;;;;;9.93;84.59;101710.00;5075691;28;20036;-45
2022/11/02 06:50:52;;;;;;;39.72;5.75;;;;;;;9.92;85.10;101718.56;5076048;28;20028;-47
2022/11/02 06:53:19;;;;;;;39.17;5.35;;;;;;;9.88;85.15;101723.56;5074990;28;20049;-46
2022/11/02 06:55:49;;;;;;;35.33;4.13;;;;;;;9.87;85.05;101736.34;5075485;28;20107;-48
2022/11/02 06:58:15;;;;;;;40.78;5.22;;;;;;;9.86;85.33;101735.50;5075720;28;20037;-45
2022/11/02 07:00:40;;;;;;;29.65;4.43;;;;;;;9.84;85.42;101737.09;5075148;28;20024;-46
2022/11/02 07:03:08;;;;;;;37.97;4.45;;;;;;;9.84;85.40;101755.13;5075481;28;20032;-44
2022/11/02 07:05:33;;;;;;;;;;;;;;;9.86;85.33;101750.94;5076057;28;20075;-44
2022/11/02 07:07:59;;;;;;;36.83;5.13;;;;;;;9.82;85.60;101763.59;5074678;28;19920;-47
2022/11/02 07:10:25;;;;;;;39.47;4.90;;;;;;;9.81;85.73;101772.09;5075215;28;20052;-45
2022/11/02 07:12:53;;;;;;;35.10;4.63;;;;;;;9.81;85.62;101767.88;5075122;28;20107;-46
2022/11/02 07:15:20;;;;;;;52.38;5.65;;;;;;;9.84;85.66;101775.72;5075068;28;20017;-48
2022/11/02 07:17:45;;;;;;;33.27;5.17;;;;;;;9.86;85.65;101778.38;5075292;28;20405;-46
2022/11/02 07:20:10;;;;;;;46.95;6.32;;;;;;;9.86;85.55;101789.56;5074732;28;20107;-45
2022/11/02 07:22:36;;;;;;;31.77;4.97;;;;;;;9.86;85.56;101807.59;5075072;28;20040;-48
2022/11/02 07:25:01;;;;;;;32.20;4.80;;;;;;;9.92;85.37;101811.25;5074516;28;20104;-47
2022/11/02 07:27:26;;;;;;;36.20;5.20;;;;;;;9.95;85.25;101806.25;5074580;28;20024;-46
2022/11/02 07:29:52;;;;;;;41.00;5.85;;;;;;;9.96;84.91;101802.88;5075106;28;20032;-45
2022/11/02 07:32:17;;;;;;;35.08;5.00;;;;;;;9.96;85.10;101808.03;5074797;28;20031;-44
2022/11/02 07:34:42;;;;;;;34.25;4.88;;;;;;;9.95;85.32;101811.41;5074554;28;20055;-47
2022/11/02 07:37:07;;;;;;;34.58;4.95;;;;;;;9.96;85.37;101818.31;5074603;28;20032;-47
2022/11/02 07:39:33;;;;;;;33.15;5.32;;;;;;;9.97;85.25;101820.09;5074917;28;20048;-48
2022/11/02 07:41:58;;;;;;;38.38;5.18;;;;;;;9.97;85.27;101820.09;5074618;28;20121;-47
2022/11/02 07:44:23;;;;;;;41.97;5.25;;;;;;;10.02;84.91;101821.19;5074440;28;20040;-47
2022/11/02 07:46:48;;;;;;;39.35;5.07;;;;;;;10.03;85.28;101828.09;5074800;28;20036;-48
2022/11/02 07:49:14;;;;;;;39.88;4.82;;;;;;;10.10;84.54;101824.13;5074062;28;20041;-48
2022/11/02 07:51:39;;;;;;;39.33;5.55;;;;;;;10.14;84.68;101838.91;5074649;28;20522;-46
2022/11/02 07:54:04;;;;;;;31.55;4.30;;;;;;;10.18;84.68;101836.53;5074685;28;20108;-45
2022/11/02 07:56:30;;;;;;;33.28;4.80;;;;;;;10.23;84.58;101825.59;5073837;28;20090;-45
2022/11/02 07:58:55;;;;;;;44.33;4.82;;;;;;;10.28;84.08;101832.72;5074332;28;20029;-47
2022/11/02 08:01:20;;;;;;;38.03;4.82;;;;;;;10.33;84.51;101838.09;5074527;28;20586;-46
2022/11/02 08:03:46;;;;;;;41.80;4.63;;;;;;;10.39;83.74;101846.13;5073960;28;20035;-45
2022/11/02 08:06:12;;;;;;;30.60;4.72;;;;;;;10.45;83.85;101843.81;5074324;28;20033;-47
2022/11/02 08:08:37;;;;;;;30.90;4.15;;;;;;;10.50;83.46;101849.22;5074380;28;20031;-47
2022/11/02 08:11:07;;;;;;;37.17;4.88;;;;;;;10.57;83.24;101852.94;5073815;28;20028;-48
2022/11/02 08:13:33;;;;;;;38.53;5.95;;;;;;;10.61;83.21;101850.56;5074742;28;20168;-48
2022/11/02 08:15:59;;;;;;;42.95;5.10;;;;;;;10.65;82.73;101841.28;5074326;28;20024;-45
2022/11/02 08:18:26;;;;;;;35.33;4.95;;;;;;;10.72;82.65;101851.06;5073511;28;20039;-48
2022/11/02 08:20:54;;;;;;;26.10;3.95;;;;;;;10.82;82.60;101863.56;5074202;28;20016;-48
2022/11/02 08:23:19;;;;;;;39.67;4.38;;;;;;;10.90;82.25;101868.16;5073279;28;20056;-46
2022/11/02 08:25:47;;;;;;;34.28;4.88;;;;;;;10.95;81.82;101853.75;5074005;28;20032;-48
2022/11/02 08:28:16;;;;;;;35.70;5.00;;;;;;;11.03;81.71;101865.31;5073875;28;20082;-44
2022/11/02 08:30:41;;;;;;;41.58;4.70;;;;;;;11.06;81.47;101862.88;5073400;28;20029;-46
2022/11/02 08:33:12;;;;;;;35.47;4.80;;;;;;;11.10;81.13;101875.09;5073462;28;20074;-47
2022/11/02 08:35:38;;;;;;;41.05;5.32;;;;;;;11.06;81.15;101878.34;5073734;28;20021;-47
2022/11/02 08:38:04;;;;;;;36.83;5.40;;;;;;;11.06;81.47;101872.31;5072460;28;20116;-47
2022/11/02 08:40:30;;;;;;;33.50;5.32;;;;;;;11.05;81.37;101876.56;5073322;28;20491;-47
2022/11/02 08:43:00;;;;;;;36.55;4.90;;;;;;;11.07;80.58;101869.81;5073846;28;20028;-46
2022/11/02 08:45:27;;;;;;;40.38;5.05;;;;;;;11.10;80.69;101884.53;5072827;28;20057;-46
2022/11/02 08:47:53;;;;;;;40.05;5.00;;;;;;;11.17;80.28;101890.03;5073473;28;20036;-44
2022/11/02 08:50:18;;;;;;;39.60;5.20;;;;;;;11.20;79.19;101897.88;5073266;28;20031;-47
2022/11/02 08:52:43;;;;;;;33.15;4.82;;;;;;;11.32;79.42;101891.50;5073356;28;20024;-46
2022/11/02 08:55:09;;;;;;;34.83;5.35;;;;;;;11.43;79.03;101895.44;5073225;28;20067;-45
2022/11/02 08:57:51;;;;;;;39.67;5.45;;;;;;;11.49;78.80;101885.38;5073460;28;20020;-46
2022/11/02 09:00:18;;;;;;;28.50;5.22;;;;;;;11.63;78.08;101892.81;5072551;28;20055;-46
2022/11/02 09:02:44;;;;;;;39.03;5.22;;;;;;;11.75;76.04;101890.75;5073280;28;20025;-46
2022/11/02 09:05:10;;;;;;;33.35;5.30;;;;;;;11.97;75.89;101900.31;5073108;28;20027;-46
2022/11/02 09:07:36;;;;;;;28.98;4.63;;;;;;;12.24;75.06;101903.91;5072414;28;20464;-46
2022/11/02 09:10:02;;;;;;;67.60;6.05;;;;;;;12.41;73.83;101904.56;5073402;28;20114;-45
2022/11/02 09:12:27;;;;;;;44.97;5.32;;;;;;;12.65;72.72;101899.47;5072562;28;20031;-45
2022/11/02 09:14:52;;;;;;;28.02;4.88;;;;;;;12.74;71.67;101899.81;5072995;28;20028;-44
2022/11/02 09:17:18;;;;;;;37.58;5.13;;;;;;;12.91;70.61;101904.75;5073018;28;20372;-46
2022/11/02 09:19:43;;;;;;;32.00;4.97;;;;;;;13.00;69.96;101902.50;5072694;28;20033;-46
2022/11/02 09:22:08;;;;;;;34.05;4.65;;;;;;;13.33;69.46;101905.41;5072829;28;20024;-46
2022/11/02 09:24:33;;;;;;;27.58;4.70;;;;;;;13.40;69.01;101903.97;5073173;28;20028;-46
2022/11/02 09:26:59;;;;;;;39.88;5.30;;;;;;;13.47;68.31;101916.28;5072476;28;20032;-47
2022/11/02 09:29:24;;;;;;;45.03;5.93;;;;;;;13.63;68.04;101919.41;5072585;28;20413;-45
2022/11/02 09:31:49;;;;;;;30.38;4.35;;;;;;;13.55;67.07;101924.31;5072852;28;20423;-47
2022/11/02 09:34:15;;;;;;;32.53;5.47;;;;;;;13.51;67.29;101922.47;5072391;28;20406;-46
2022/11/02 09:36:41;;;;;;;40.13;5.20;;;;;;;13.81;67.57;101913.97;5072929;28;20059;-46
2022/11/02 09:39:07;;;;;;;29.55;4.90;;;;;;;13.88;66.79;101915.94;5072736;28;20142;-47
2022/11/02 09:41:42;;;;;;;32.28;5.40;;;;;;;13.86;66.60;101917.59;5072493;28;20071;-46
2022/11/02 09:44:17;;;;;;;39.40;5.40;;;;;;;13.69;65.80;101929.13;5072529;28;20036;-43
2022/11/02 09:46:45;;;;;;;30.60;4.78;;;;;;;13.59;66.19;101927.91;5072707;28;20056;-46
2022/11/02 09:49:17;;;;;;;31.95;4.90;;;;;;;13.86;66.46;101929.69;5071481;28;20449;-47
2022/11/02 09:51:49;;;;;;;34.05;4.93;;;;;;;13.52;67.39;101931.09;5073058;28;20031;-44
2022/11/02 09:54:32;;;;;;;39.47;5.18;;;;;;;13.55;67.95;101926.91;5072634;28;20082;-43
2022/11/02 09:57:04;;;;;;;40.08;5.28;;;;;;;13.49;67.83;101934.47;5072446;28;20039;-46
2022/11/02 09:59:29;;;;;;;38.22;5.10;;;;;;;13.92;67.63;101927.31;5072498;28;20028;-47
2022/11/02 10:02:12;;;;;;;34.40;5.65;;;;;;;14.10;65.75;101935.66;5072297;28;20028;-47
2022/11/02 10:04:53;;;;;;;34.40;4.90;;;;;;;14.09;66.19;101938.22;5072471;28;20029;-46
2022/11/02 10:07:30;;;;;;;40.00;5.25;;;;;;;14.14;65.31;101937.53;5072459;28;20029;-47
2022/11/02 10:10:05;;;;;;;28.33;4.68;;;;;;;14.23;64.39;101939.53;5072072;28;20385;-48
2022/11/02 10:12:40;;;;;;;27.63;4.60;;;;;;;14.21;64.47;101953.28;5072728;28;20047;-47
2022/11/02 10:15:15;;;;;;;40.58;5.20;;;;;;;14.27;63.91;101961.28;5072245;28;20472;-43
2022/11/02 10:17:42;;;;;;;36.55;5.38;;;;;;;14.19;62.94;101962.72;5071706;28;20058;-48
2022/11/02 10:20:23;;;;;;;42.17;5.30;;;;;;;14.26;63.78;101960.38;5072479;28;20033;-47
2022/11/02 10:22:49;;;;;;;37.45;5.80;;;;;;;14.54;63.25;101970.72;5071897;28;20085;-47
2022/11/02 10:25:15;;;;;;;37.22;5.53;;;;;;;14.69;61.71;101970.38;5072090;28;20442;-46
2022/11/02 10:27:46;;;;;;;36.90;5.63;;;;;;;14.67;60.59;101965.16;5072342;28;20098;-49
2022/11/02 10:30:19;;;;;;;30.55;4.72;;;;;;;14.45;61.84;101969.63;5071582;28;20106;-46
2022/11/02 10:32:50;;;;;;;37.90;5.47;;;;;;;14.35;61.28;101959.78;5072095;28;20502;-48
2022/11/02 10:35:32;;;;;;;37.10;6.10;;;;;;;14.67;62.35;101961.66;5072360;28;20032;-48
2022/11/02 10:38:20;;;;;;;31.80;5.43;;;;;;;15.02;61.24;101970.50;5071701;28;20060;-48
2022/11/02 10:41:18;;;;;;;35.60;4.80;;;;;;;15.44;60.28;101964.78;5072268;28;20112;-48
2022/11/02 10:43:52;;;;;;;31.83;4.60;;;;;;;15.15;58.63;101969.16;5064761;28;20072;-48
2022/11/02 10:46:56;;;;;;;30.35;4.18;;;;;;;15.63;59.29;101966.16;5071637;28;20395;-47
2022/11/02 10:49:56;;;;;;;29.40;4.95;;;;;;;15.53;58.92;101976.25;5067159;28;20495;-49
2022/11/02 10:52:21;;;;;;;41.90;5.15;;;;;;;15.47;57.86;101975.25;5071329;28;20147;-49
2022/11/02 10:54:51;;;;;;;27.67;4.72;;;;;;;15.67;57.34;101982.69;5072412;28;20111;-47
2022/11/02 10:57:23;;;;;;;30.05;5.10;;;;;;;16.10;57.14;101983.84;5071944;28;20032;-47
2022/11/02 11:00:27;;;;;;;31.85;4.82;;;;;;;16.46;57.41;101984.69;5071936;28;20029;-47
2022/11/02 11:03:15;;;;;;;32.80;4.45;;;;;;;16.43;53.95;101976.81;5075797;28;20099;-46
2022/11/02 11:05:49;;;;;;;24.88;4.45;;;;;;;16.11;52.52;101990.81;5075114;28;20020;-45
2022/11/02 11:08:43;;;;;;;29.83;3.80;;;;;;;16.24;53.45;101986.78;5075304;28;20040;-48
2022/11/02 11:11:18;;;;;;;29.73;4.53;;;;;;;15.80;52.51;101979.59;5071368;28;20119;-48
2022/11/02 11:13:53;;;;;;;31.42;4.22;;;;;;;15.44;52.52;101988.16;5074751;28;20021;-48
2022/11/02 11:16:18;;;;;;;32.25;4.35;;;;;;;15.22;52.61;101983.19;5075170;28;20021;-48
2022/11/02 11:18:50;;;;;;;25.10;3.80;;;;;;;15.36;54.06;101988.78;5075504;28;20025;-48
2022/11/02 11:21:15;;;;;;;27.00;4.40;;;;;;;15.48;52.79;101987.41;5074491;28;20060;-47
2022/11/02 11:23:40;;;;;;;21.40;3.78;;;;;;;15.60;52.11;101988.56;5075514;28;20055;-50
2022/11/02 11:26:25;;;;;;;25.95;4.35;;;;;;;15.48;52.22;101992.59;5074742;28;20020;-48
2022/11/02 11:28:55;;;;;;;28.23;4.18;;;;;;;16.02;52.29;101985.34;5075045;28;20535;-45
2022/11/02 11:31:21;;;;;;;24.15;3.92;;;;;;;15.92;51.42;101984.25;5075179;28;20020;-48
2022/11/02 11:33:56;;;;;;;38.50;4.63;;;;;;;15.83;51.52;101977.94;5074767;28;20024;-47
2022/11/02 11:36:31;;;;;;;25.23;3.40;;;;;;;15.59;51.70;101981.63;5074668;28;20384;-49
2022/11/02 11:39:22;;;;;;;27.30;3.60;;;;;;;15.46;51.82;101973.47;5075035;28;20021;-47